createdAt,value
2022-12-14T00:04:04.654Z,-2.93
2022-12-14T00:09:07.760Z,-3.55
2022-12-14T00:14:10.952Z,-3.98
2022-12-14T00:19:14.266Z,-4.28
2022-12-14T00:24:17.363Z,-4.52
2022-12-14T00:29:20.470Z,-3.66
2022-12-14T00:34:23.582Z,0.84
2022-12-14T00:39:26.883Z,3.60
2022-12-14T00:44:29.995Z,4.99
2022-12-14T00:49:33.102Z,3.21
2022-12-14T00:54:36.225Z,0.44
2022-12-14T00:59:39.412Z,-1.30
2022-12-14T01:04:42.530Z,-2.42
2022-12-14T01:09:45.625Z,-3.27
2022-12-14T01:14:49.554Z,-3.91
2022-12-14T01:19:53.272Z,-4.36
2022-12-14T01:24:56.696Z,-3.83
2022-12-14T01:30:00.117Z,0.51
2022-12-14T01:35:03.613Z,3.24
2022-12-14T01:40:08.187Z,4.54
2022-12-14T01:45:22.352Z,4.71
2022-12-14T01:50:34.954Z,1.63
2022-12-14T01:55:48.919Z,-0.65
2022-12-14T02:00:59.607Z,-2.14
2022-12-14T02:06:24.759Z,-3.18
2022-12-14T02:11:44.039Z,-4.03
2022-12-14T02:16:53.370Z,-4.48
2022-12-14T02:22:57.899Z,-1.28
2022-12-14T02:28:58.049Z,2.49
2022-12-14T02:34:18.359Z,4.21
2022-12-14T02:39:35.588Z,5.07
2022-12-14T02:45:20.273Z,2.71
2022-12-14T02:51:06.820Z,-0.30
2022-12-14T02:56:19.536Z,-2.04
2022-12-14T03:01:29.176Z,-3.07
2022-12-14T03:06:32.516Z,-3.84
2022-12-14T03:11:50.460Z,-4.41
2022-12-14T03:17:00.295Z,-3.00
2022-12-14T03:22:19.191Z,1.48
2022-12-14T03:27:34.894Z,3.67
2022-12-14T03:32:47.759Z,4.93
2022-12-14T03:38:07.712Z,3.50
2022-12-14T03:43:33.375Z,0.43
2022-12-14T03:48:39.479Z,-1.57
2022-12-14T03:53:50.243Z,-2.88
2022-12-14T03:59:16.785Z,-3.80
2022-12-14T04:04:33.816Z,-4.45
2022-12-14T04:09:55.361Z,-2.47
2022-12-14T04:15:40.033Z,1.83
2022-12-14T04:20:50.953Z,4.01
2022-12-14T04:26:05.173Z,5.03
2022-12-14T04:31:14.388Z,2.86
2022-12-14T04:36:49.232Z,-0.12
2022-12-14T04:41:58.594Z,-2.05
2022-12-14T04:47:06.231Z,-3.26
2022-12-14T04:52:25.243Z,-4.15
2022-12-14T04:57:38.178Z,-3.70
2022-12-14T05:03:12.541Z,1.24
2022-12-14T05:09:04.344Z,3.98
2022-12-14T05:14:18.726Z,4.53
2022-12-14T05:19:26.818Z,0.99
2022-12-14T05:24:30.067Z,-1.42
2022-12-14T05:29:33.513Z,-2.85
2022-12-14T05:34:36.579Z,-3.82
2022-12-14T05:39:39.827Z,-4.47
2022-12-14T05:44:43.302Z,-1.92
2022-12-14T05:49:46.440Z,2.05
2022-12-14T05:54:53.510Z,3.81
2022-12-14T05:59:56.546Z,4.96
2022-12-14T06:04:59.837Z,2.80
2022-12-14T06:10:03.161Z,-0.20
2022-12-14T06:15:07.652Z,-2.07
2022-12-14T06:20:12.467Z,-3.46
2022-12-14T06:25:16.553Z,-4.42
2022-12-14T06:30:20.176Z,-1.43
2022-12-14T06:35:23.279Z,1.68
2022-12-14T06:40:26.589Z,3.20
2022-12-14T06:45:30.818Z,4.04
2022-12-14T06:50:33.943Z,4.58
2022-12-14T06:55:37.336Z,4.76
2022-12-14T07:00:40.448Z,5.00
2022-12-14T07:05:48.771Z,4.14
2022-12-14T07:10:58.930Z,0.61
2022-12-14T07:16:08.005Z,-1.77
2022-12-14T07:21:15.560Z,-3.32
2022-12-14T07:26:23.464Z,-4.40
2022-12-14T07:31:29.324Z,-1.35
2022-12-14T07:36:33.220Z,1.95
2022-12-14T07:41:36.443Z,3.54
2022-12-14T07:46:41.374Z,4.58
2022-12-14T07:51:46.229Z,4.83
2022-12-14T07:56:49.710Z,1.76
2022-12-14T08:01:54.122Z,-0.79
2022-12-14T08:06:58.814Z,-2.39
2022-12-14T08:12:02.330Z,-3.51
2022-12-14T08:17:05.448Z,-4.30
2022-12-14T08:22:08.758Z,-3.24
2022-12-14T08:27:12.164Z,1.79
2022-12-14T08:32:15.373Z,4.40
2022-12-14T08:37:18.678Z,4.28
2022-12-14T08:42:21.808Z,1.15
2022-12-14T08:47:25.508Z,-0.80
2022-12-14T08:52:29.128Z,-2.08
2022-12-14T08:57:32.339Z,-2.95
2022-12-14T09:02:36.792Z,-3.56
2022-12-14T09:07:40.221Z,-3.97
2022-12-14T09:12:43.710Z,-4.33
2022-12-14T09:17:47.631Z,-4.57
2022-12-14T09:22:52.789Z,-1.47
2022-12-14T09:27:55.892Z,2.38
2022-12-14T09:32:59.131Z,4.02
2022-12-14T09:38:02.407Z,5.00
2022-12-14T09:43:13.310Z,2.59
2022-12-14T09:48:26.125Z,-0.79
2022-12-14T09:53:29.919Z,-2.71
2022-12-14T09:58:35.509Z,-3.76
2022-12-14T10:03:56.406Z,-4.39
2022-12-14T10:10:04.780Z,-2.34
2022-12-14T10:15:55.712Z,2.25
2022-12-14T10:21:16.321Z,4.06
2022-12-14T10:26:24.135Z,4.90
2022-12-14T10:31:59.636Z,4.08
2022-12-14T10:37:23.703Z,0.08
2022-12-14T10:42:59.855Z,-2.20
2022-12-14T10:48:34.355Z,-3.37
2022-12-14T10:54:09.796Z,-4.24
2022-12-14T10:59:20.990Z,-4.14
2022-12-14T11:04:55.739Z,0.29
2022-12-14T11:10:32.909Z,3.53
2022-12-14T11:15:47.294Z,5.00
2022-12-14T11:20:55.328Z,3.21
2022-12-14T11:26:03.519Z,0.24
2022-12-14T11:31:31.950Z,-1.50
2022-12-14T11:36:42.862Z,-2.70
2022-12-14T11:41:58.345Z,-3.37
2022-12-14T11:47:08.642Z,-3.81
2022-12-14T11:52:20.220Z,-4.08
2022-12-14T11:57:32.481Z,-4.29
2022-12-14T12:02:41.166Z,-4.43
2022-12-14T12:07:50.539Z,-4.55
2022-12-14T12:13:09.984Z,-4.26
2022-12-14T12:18:46.487Z,0.38
2022-12-14T12:24:12.263Z,3.67
2022-12-14T12:29:47.095Z,4.89
2022-12-14T12:35:17.444Z,3.67
2022-12-14T12:40:33.278Z,0.59
2022-12-14T12:46:23.407Z,-1.12
2022-12-14T12:51:41.342Z,-2.36
2022-12-14T12:56:51.098Z,-3.27
2022-12-14T13:02:02.964Z,-3.90
2022-12-14T13:07:20.622Z,-4.29
2022-12-14T13:13:03.361Z,-4.03
2022-12-14T13:18:48.710Z,0.73
2022-12-14T13:23:45.852Z,2.26
2022-12-14T13:29:10.339Z,-0.44
2022-12-14T13:34:19.788Z,-2.34
2022-12-14T13:39:32.049Z,-3.43
2022-12-14T13:45:02.667Z,-4.12
2022-12-14T13:50:37.771Z,-2.08
2022-12-14T13:55:59.065Z,1.91
2022-12-14T14:01:22.516Z,0.58
2022-12-14T14:06:44.274Z,-2.05
2022-12-14T14:12:29.061Z,-3.49
2022-12-14T14:17:45.996Z,-4.39
2022-12-14T14:23:14.897Z,-0.72
2022-12-14T14:28:29.643Z,2.83
2022-12-14T14:33:47.211Z,3.98
2022-12-14T14:38:54.766Z,4.68
2022-12-14T14:44:04.539Z,4.87
2022-12-14T14:49:34.545Z,5.04
2022-12-14T15:00:04.550Z,1.72
2022-12-14T15:05:43.527Z,-1.34
2022-12-14T15:10:50.121Z,-3.32
2022-12-14T15:15:56.787Z,-4.41
2022-12-14T15:21:13.142Z,-1.09
2022-12-14T15:26:25.469Z,2.31
2022-12-14T15:31:34.137Z,3.96
2022-12-14T15:36:42.848Z,4.86
2022-12-14T15:41:45.954Z,4.13
2022-12-14T15:46:55.501Z,0.70
2022-12-14T15:51:59.662Z,-1.60
2022-12-14T15:57:02.946Z,-3.18
2022-12-14T16:02:32.621Z,-4.36
2022-12-14T16:07:39.641Z,-1.71
2022-12-14T16:12:52.923Z,1.73
2022-12-14T16:18:02.104Z,3.26
2022-12-14T16:23:31.758Z,4.20
2022-12-14T16:28:37.844Z,4.84
2022-12-14T16:33:43.440Z,4.98
2022-12-14T16:39:03.930Z,1.99
2022-12-14T16:44:22.007Z,-1.14
2022-12-14T16:49:32.777Z,-3.07
2022-12-14T16:54:38.830Z,-4.36
2022-12-14T16:59:46.989Z,-2.07
2022-12-14T17:04:50.403Z,1.37
2022-12-14T17:09:56.696Z,2.80
2022-12-14T17:15:00.271Z,3.45
2022-12-14T17:20:13.656Z,3.99
2022-12-14T17:25:19.008Z,4.51
2022-12-14T17:30:24.528Z,4.97
2022-12-14T17:35:32.479Z,4.25
2022-12-14T17:40:35.720Z,0.68
2022-12-14T17:45:39.930Z,-1.74
2022-12-14T17:50:50.269Z,-3.38
2022-12-14T17:55:55.639Z,-4.35
2022-12-14T18:01:03.308Z,-1.30
2022-12-14T18:06:06.796Z,1.28
2022-12-14T18:11:19.530Z,2.50
2022-12-14T18:16:25.356Z,3.40
2022-12-14T18:21:29.946Z,4.11
2022-12-14T18:26:33.048Z,4.60
2022-12-14T18:31:38.583Z,4.99
2022-12-14T18:36:41.849Z,4.06
2022-12-14T18:41:45.129Z,0.52
2022-12-14T18:46:49.491Z,-1.91
2022-12-14T18:51:52.874Z,-3.61
2022-12-14T18:56:56.227Z,-4.12
2022-12-14T19:01:59.489Z,-0.57
2022-12-14T19:07:02.775Z,2.04
2022-12-14T19:12:06.885Z,3.01
2022-12-14T19:17:10.054Z,3.55
2022-12-14T19:22:13.266Z,3.79
2022-12-14T19:27:25.926Z,4.14
2022-12-14T19:32:39.639Z,4.48
2022-12-14T19:37:42.847Z,4.69
2022-12-14T19:42:47.102Z,4.77
2022-12-14T19:47:50.711Z,4.77
2022-12-14T19:52:53.853Z,4.73
2022-12-14T19:57:57.012Z,4.59
2022-12-14T20:03:00.385Z,4.50
2022-12-14T20:08:03.840Z,4.53
2022-12-14T20:13:07.459Z,4.54
2022-12-14T20:18:10.670Z,4.58
2022-12-14T20:23:14.700Z,4.70
2022-12-14T20:28:17.947Z,4.85
2022-12-14T20:33:25.144Z,4.92
2022-12-14T20:38:31.697Z,4.93
2022-12-14T20:43:41.991Z,4.84
2022-12-14T20:48:48.041Z,4.59
2022-12-14T20:53:51.770Z,4.44
2022-12-14T20:58:56.147Z,4.44
2022-12-14T21:04:03.114Z,4.57
2022-12-14T21:09:10.501Z,4.80
2022-12-14T21:14:15.276Z,5.04
2022-12-14T21:19:18.974Z,5.11
2022-12-14T21:25:00.394Z,5.02
2022-12-14T21:29:49.564Z,4.94
2022-12-14T21:34:52.762Z,4.87
2022-12-14T21:39:56.144Z,4.92
2022-12-14T21:44:59.385Z,4.98
2022-12-14T21:50:02.510Z,4.83
2022-12-14T21:55:06.921Z,4.78
2022-12-14T22:00:11.990Z,4.76
2022-12-14T22:05:15.705Z,4.63
2022-12-14T22:10:24.613Z,4.55
2022-12-14T22:15:28.463Z,4.51
2022-12-14T22:20:31.680Z,4.57
2022-12-14T22:25:34.983Z,4.65
2022-12-14T22:30:38.603Z,4.70
2022-12-14T22:35:42.528Z,4.63
2022-12-14T22:40:46.261Z,4.61
2022-12-14T22:45:49.731Z,4.68
2022-12-14T22:50:58.740Z,4.77
2022-12-14T22:56:19.849Z,4.81
2022-12-14T23:01:23.931Z,5.01
2022-12-14T23:06:28.859Z,5.16
2022-12-14T23:11:52.510Z,2.63
2022-12-14T23:17:14.579Z,-1.13
2022-12-14T23:22:36.340Z,-3.43
2022-12-14T23:27:58.061Z,-4.10
2022-12-14T23:33:19.990Z,-0.44
2022-12-14T23:38:41.849Z,1.66
2022-12-14T23:44:04.509Z,2.67
2022-12-14T23:49:26.289Z,3.35
2022-12-14T23:54:48.705Z,3.99
